CAMANCHE RESERVOIR (CMN)

Elevation: 236' · MOKELUMNE R basin · Operator: East Bay Municipal Utility District

Provisional data, subject to change.
Query executed Thursday at 13:21:01   clock

Select a sensor type for a plot of data.
Note: Reservoir Flows are daily averages.

Earlier

Date RES ELE    STORAGE    RES CHG    TOC STO    ABV TOC    OUTFLOW    INFLOW   
 FEET   AF   AF   AF   AF   CFS   CFS  
04/27/2016 207.84 234920 1950 356055 -121135 346 1356
04/28/2016 208.17 236770 1897 357622 -120852 383 1374
04/29/2016 208.49 238580 1860 359190 -- 400 1377
04/30/2016 208.80 240340 1710 360757 -- 400 1378
05/01/2016 209.10 242060 1815 362324 -120264 401 1373
05/02/2016 209.42 243890 1828 363891 -120001 400 1366
05/03/2016 209.74 245730 1829 365458 -119728 400 1356
05/04/2016 210.03 247400 1711 367025 -119625 410 1335
05/05/2016 210.34 249200 1747 368593 -119393 415 1354
05/06/2016 210.63 250890 1746 370160 -- 415 1346
05/07/2016 210.94 252700 1785 371727 -- 415 1341
05/08/2016 211.23 254410 1646 373294 -118884 415 1340
05/09/2016 211.51 256060 1710 374861 -118801 415 1339
05/10/2016 211.81 257830 1797 376428 -118598 420 1342
05/11/2016 212.10 259550 1720 377996 -- 418 1342
05/12/2016 212.39 261280 1694 379563 -118283 425 1342
05/13/2016 212.66 262890 1673 381130 -- 435 1344
05/14/2016 212.93 264520 1599 382697 -- 440 1343
05/15/2016 213.20 266140 1628 384264 -118124 440 1343
05/16/2016 213.47 267770 1636 385831 -118061 440 1343
05/17/2016 213.74 269410 1683 387398 -117988 447 1344
05/18/2016 214.02 271110 1692 388966 -117856 459 1344
05/19/2016 214.27 272630 1547 390533 -117903 462 1345
05/20/2016 214.52 274160 1522 392100 -- 469 1345
05/21/2016 214.77 275700 1526 392100 -- 467 1301
05/22/2016 215.02 277230 1533 392100 -114870 465 1335
05/23/2016 215.28 278840 1644 392100 -113260 468 1335
05/24/2016 215.54 280440 1599 392100 -111660 472 1333
05/25/2016 215.79 282000 1518 392100 -110100 475 1332
05/26/2016 -- -- -- -- -- -- --

Later | Latest

Warning! This data is preliminary and subject to revision.

Show CMN Map | Plot CMN Data | 1 Month CMN Data | Real-Time CMN Data | CMN Info